createdAt,value
2019-05-30T00:01:01.906Z,11.70
2019-05-30T00:03:02.305Z,11.70
2019-05-30T00:05:27.494Z,11.70
2019-05-30T00:07:56.223Z,11.70
2019-05-30T00:10:51.222Z,11.80
2019-05-30T00:12:49.174Z,11.70
2019-05-30T00:15:16.584Z,11.70
2019-05-30T00:17:43.294Z,11.70
2019-05-30T00:20:06.713Z,11.60
2019-05-30T00:22:31.787Z,11.60
2019-05-30T00:25:28.030Z,11.50
2019-05-30T00:27:29.909Z,11.50
2019-05-30T00:30:24.655Z,11.50
2019-05-30T00:32:22.307Z,11.60
2019-05-30T00:34:47.962Z,11.70
2019-05-30T00:37:16.881Z,11.90
2019-05-30T00:39:51.964Z,12.10
2019-05-30T00:42:19.034Z,12.30
2019-05-30T00:45:20.808Z,12.40
2019-05-30T00:47:12.157Z,12.50
2019-05-30T00:49:37.789Z,12.50
2019-05-30T00:52:05.289Z,12.60
2019-05-30T00:54:32.119Z,12.70
2019-05-30T00:56:58.583Z,12.70
2019-05-30T00:59:52.893Z,12.80
2019-05-30T01:01:52.860Z,12.80
2019-05-30T01:04:19.121Z,12.80
2019-05-30T01:06:46.646Z,12.80
2019-05-30T01:09:40.916Z,12.70
2019-05-30T01:11:41.781Z,12.70
2019-05-30T01:14:07.356Z,12.70
2019-05-30T01:16:31.637Z,12.70
2019-05-30T01:18:59.032Z,12.70
2019-05-30T01:21:52.588Z,12.70
2019-05-30T01:24:21.073Z,12.60
2019-05-30T01:27:16.690Z,12.50
2019-05-30T01:28:59.332Z,12.50
2019-05-30T01:31:28.015Z,12.40
2019-05-30T01:33:57.477Z,12.30
2019-05-30T01:36:19.267Z,12.30
2019-05-30T01:38:47.022Z,12.30
2019-05-30T01:41:12.015Z,12.20
2019-05-30T01:43:40.188Z,12.20
2019-05-30T01:46:37.154Z,12.20
2019-05-30T01:49:06.790Z,12.10
2019-05-30T01:51:06.523Z,12.00
2019-05-30T01:53:31.269Z,12.00
2019-05-30T01:56:35.402Z,12.00
2019-05-30T01:58:37.977Z,11.80
2019-05-30T02:01:41.056Z,11.90
2019-05-30T02:03:40.961Z,11.90
2019-05-30T02:06:09.406Z,11.80
2019-05-30T02:08:34.824Z,11.80
2019-05-30T02:11:01.300Z,11.70
2019-05-30T02:13:27.652Z,11.70
2019-05-30T02:15:57.920Z,11.50
2019-05-30T02:18:24.465Z,11.30
2019-05-30T02:20:49.086Z,11.20
2019-05-30T02:23:25.172Z,11.00
2019-05-30T02:25:50.587Z,11.00
2019-05-30T02:28:18.141Z,10.80
2019-05-30T02:30:43.222Z,10.90
2019-05-30T02:33:37.532Z,10.80
2019-05-30T02:36:36.162Z,10.70
2019-05-30T02:41:03.322Z,10.60
2019-05-30T02:41:55.414Z,10.50
2019-05-30T02:43:53.513Z,10.50
2019-05-30T02:46:20.146Z,10.40
2019-05-30T02:48:58.701Z,10.30
2019-05-30T02:51:14.102Z,10.20
2019-05-30T02:53:40.202Z,10.10
2019-05-30T02:56:06.418Z,10.00
2019-05-30T02:58:32.112Z,10.00
2019-05-30T03:02:16.375Z,9.90
2019-05-30T03:04:10.934Z,10.10
2019-05-30T03:06:49.941Z,10.30
2019-05-30T03:08:54.644Z,10.30
2019-05-30T03:11:15.899Z,10.40
2019-05-30T03:13:46.192Z,10.40
2019-05-30T03:16:13.514Z,10.40
2019-05-30T03:18:39.241Z,10.30
2019-05-30T03:21:10.577Z,10.20
2019-05-30T03:24:31.592Z,10.20
2019-05-30T03:34:16.497Z,10.20
2019-05-30T03:37:00.029Z,10.00
2019-05-30T03:39:28.145Z,10.00
2019-05-30T03:42:26.768Z,9.90
2019-05-30T03:44:35.690Z,9.90
2019-05-30T03:47:15.543Z,9.90
2019-05-30T03:50:17.035Z,9.90
2019-05-30T03:52:14.525Z,9.90
2019-05-30T03:54:41.409Z,10.00
2019-05-30T03:57:21.534Z,10.10
2019-05-30T04:00:19.123Z,10.20
2019-05-30T04:03:08.958Z,10.20
2019-05-30T04:06:20.314Z,10.30
2019-05-30T04:07:26.057Z,10.50
2019-05-30T04:10:15.878Z,10.90
2019-05-30T04:38:25.253Z,11.40
2019-05-30T04:40:17.689Z,11.90
2019-05-30T04:41:25.621Z,14.50
2019-05-30T04:44:22.895Z,14.50
2019-05-30T04:46:22.553Z,14.50
2019-05-30T04:51:07.581Z,14.70
2019-05-30T04:54:05.478Z,14.80
2019-05-30T04:56:53.458Z,14.90
2019-05-30T04:58:02.301Z,15.60
2019-05-30T05:00:32.180Z,15.80
2019-05-30T05:02:55.368Z,16.00
2019-05-30T05:05:58.244Z,16.40
2019-05-30T05:07:55.085Z,16.50
2019-05-30T05:10:23.849Z,16.70
2019-05-30T05:13:20.441Z,17.00
2019-05-30T05:16:29.549Z,17.30
2019-05-30T05:17:50.110Z,17.50
2019-05-30T05:20:25.837Z,17.60
2019-05-30T05:22:55.002Z,17.70
2019-05-30T05:25:21.498Z,18.10
2019-05-30T05:27:50.261Z,18.10
2019-05-30T05:30:55.835Z,18.30
2019-05-30T05:32:59.805Z,18.20
2019-05-30T05:35:38.428Z,18.10
2019-05-30T05:38:05.202Z,18.00
2019-05-30T05:40:33.944Z,18.20
2019-05-30T05:43:18.877Z,18.20
2019-05-30T05:45:52.309Z,18.40
2019-05-30T05:49:00.780Z,18.30
2019-05-30T05:51:58.939Z,17.90
2019-05-30T05:53:58.754Z,17.90
2019-05-30T05:58:32.070Z,18.00
2019-05-30T05:59:25.629Z,18.00
2019-05-30T06:01:54.622Z,18.00
2019-05-30T06:04:12.824Z,17.90
2019-05-30T06:06:31.439Z,17.90
2019-05-30T06:08:57.469Z,18.00
2019-05-30T06:12:52.274Z,18.30
2019-05-30T06:13:55.602Z,18.60
2019-05-30T06:16:28.394Z,18.50
2019-05-30T06:18:46.902Z,18.60
2019-05-30T06:21:14.506Z,18.40
2019-05-30T06:24:06.901Z,18.40
2019-05-30T06:26:17.771Z,18.40
2019-05-30T06:29:24.293Z,18.40
2019-05-30T06:31:24.546Z,18.40
2019-05-30T06:33:52.182Z,18.40
2019-05-30T06:36:14.122Z,18.40
2019-05-30T06:38:39.820Z,18.30
2019-05-30T06:41:32.506Z,18.20
2019-05-30T06:43:57.792Z,18.10
2019-05-30T06:46:26.197Z,18.10
2019-05-30T06:49:01.830Z,18.00
2019-05-30T06:51:27.565Z,17.90
2019-05-30T06:54:15.861Z,18.00
2019-05-30T06:57:06.007Z,18.20
2019-05-30T06:59:19.318Z,18.50
2019-05-30T07:02:10.651Z,18.80
2019-05-30T07:04:13.839Z,19.00
2019-05-30T07:07:06.470Z,19.20
2019-05-30T07:09:36.586Z,19.20
2019-05-30T07:12:15.069Z,19.20
2019-05-30T07:14:14.248Z,19.40
2019-05-30T07:16:43.777Z,18.90
2019-05-30T07:19:11.979Z,18.40
2019-05-30T07:21:39.554Z,18.60
2019-05-30T07:24:06.790Z,18.60
2019-05-30T07:26:36.785Z,18.70
2019-05-30T07:29:32.142Z,18.90
2019-05-30T07:31:34.374Z,18.80
2019-05-30T07:33:58.495Z,18.90
2019-05-30T07:36:26.331Z,19.20
2019-05-30T07:38:50.376Z,19.10
2019-05-30T07:41:18.199Z,19.10
2019-05-30T07:44:11.719Z,19.10
2019-05-30T07:46:09.960Z,19.00
2019-05-30T07:48:35.750Z,19.00
2019-05-30T07:51:11.671Z,19.00
2019-05-30T07:53:37.085Z,19.10
2019-05-30T07:56:11.625Z,19.50
2019-05-30T07:58:38.993Z,19.40
2019-05-30T08:01:09.272Z,19.40
2019-05-30T08:03:35.054Z,19.40
2019-05-30T08:06:02.180Z,19.60
2019-05-30T08:08:41.109Z,20.10
2019-05-30T08:11:17.783Z,20.50
2019-05-30T08:13:43.472Z,20.70
2019-05-30T08:16:10.528Z,20.70
2019-05-30T08:18:37.977Z,20.60
2019-05-30T08:21:02.311Z,20.30
2019-05-30T08:23:28.191Z,20.20
2019-05-30T08:25:54.719Z,20.10
2019-05-30T08:28:50.536Z,19.70
2019-05-30T08:30:56.803Z,19.40
2019-05-30T08:33:21.820Z,18.90
2019-05-30T08:35:52.922Z,18.60
2019-05-30T08:38:22.764Z,18.50
2019-05-30T08:41:26.052Z,18.30
2019-05-30T08:44:04.606Z,18.20
2019-05-30T08:46:30.140Z,18.20
2019-05-30T08:49:04.590Z,18.30
2019-05-30T08:51:32.287Z,18.40
2019-05-30T08:54:36.445Z,18.70
2019-05-30T08:56:36.734Z,18.90
2019-05-30T08:59:02.586Z,19.30
2019-05-30T09:01:42.152Z,19.70
2019-05-30T09:04:37.962Z,19.90
2019-05-30T09:06:34.148Z,19.70
2019-05-30T09:08:59.283Z,19.80
2019-05-30T09:12:06.350Z,19.70
2019-05-30T09:14:08.175Z,19.70
2019-05-30T09:16:35.737Z,19.60
2019-05-30T09:19:41.481Z,19.70
2019-05-30T09:22:09.700Z,19.70
2019-05-30T09:25:04.347Z,19.70
2019-05-30T09:27:03.484Z,19.80
2019-05-30T09:29:58.996Z,19.80
2019-05-30T09:31:59.091Z,19.70
2019-05-30T09:34:26.524Z,19.80
2019-05-30T09:36:52.478Z,19.80
2019-05-30T09:39:18.494Z,19.50
2019-05-30T09:41:56.561Z,19.10
2019-05-30T09:44:23.424Z,18.80
2019-05-30T09:47:17.351Z,19.00
2019-05-30T09:49:20.430Z,19.20
2019-05-30T09:51:46.914Z,19.10
2019-05-30T09:54:15.840Z,19.00
2019-05-30T09:56:42.060Z,19.10
2019-05-30T09:59:09.159Z,19.20
2019-05-30T10:03:01.984Z,19.20
2019-05-30T10:04:07.287Z,19.20
2019-05-30T10:07:01.337Z,19.10
2019-05-30T10:09:03.322Z,19.30
2019-05-30T10:11:28.703Z,19.20
2019-05-30T10:14:21.905Z,19.40
2019-05-30T10:16:21.519Z,19.70
2019-05-30T10:18:52.700Z,19.90
2019-05-30T10:21:20.286Z,20.00
2019-05-30T10:23:47.201Z,19.70
2019-05-30T10:26:42.029Z,19.70
2019-05-30T10:28:40.704Z,19.80
2019-05-30T10:31:05.924Z,20.00
2019-05-30T10:34:02.573Z,20.00
2019-05-30T10:36:00.429Z,20.10
2019-05-30T10:38:25.840Z,20.20
2019-05-30T10:40:52.575Z,20.00
2019-05-30T10:43:28.289Z,19.80
2019-05-30T10:45:57.494Z,19.80
2019-05-30T10:51:21.870Z,19.80
2019-05-30T10:52:16.512Z,20.00
2019-05-30T10:54:12.791Z,19.70
2019-05-30T10:56:38.029Z,20.00
2019-05-30T10:59:09.034Z,20.40
2019-05-30T11:01:37.030Z,20.40
2019-05-30T11:04:05.284Z,20.20
2019-05-30T11:06:39.999Z,20.20
2019-05-30T11:09:00.614Z,20.70
2019-05-30T11:11:29.186Z,21.00
2019-05-30T11:13:51.352Z,21.00
2019-05-30T11:16:48.883Z,21.20
2019-05-30T11:18:48.927Z,21.50
2019-05-30T11:21:13.274Z,21.20
2019-05-30T11:23:39.374Z,20.80
2019-05-30T11:26:05.800Z,20.90
2019-05-30T11:28:33.105Z,21.50
2019-05-30T11:31:04.130Z,21.80
2019-05-30T11:34:24.721Z,21.70
2019-05-30T11:36:06.056Z,21.90
2019-05-30T11:38:33.730Z,21.80
2019-05-30T11:41:26.112Z,20.80
2019-05-30T11:46:51.926Z,21.00
2019-05-30T11:47:43.950Z,20.70
2019-05-30T11:50:39.114Z,20.20
2019-05-30T11:52:14.601Z,20.50
2019-05-30T11:54:49.863Z,21.20
2019-05-30T11:57:34.217Z,21.20
2019-05-30T12:00:11.878Z,20.70
2019-05-30T12:03:08.092Z,20.80
2019-05-30T12:05:08.114Z,20.60
2019-05-30T12:08:54.732Z,20.40
2019-05-30T12:10:59.384Z,20.50
2019-05-30T12:13:53.129Z,20.40
2019-05-30T12:15:53.463Z,20.60
2019-05-30T12:19:23.376Z,20.30
2019-05-30T12:21:01.872Z,20.60
2019-05-30T12:23:25.471Z,21.00
2019-05-30T12:25:53.911Z,21.20
2019-05-30T12:28:18.522Z,21.30
2019-05-30T12:30:55.815Z,21.50
2019-05-30T12:33:13.823Z,21.60
2019-05-30T12:36:20.582Z,21.70
2019-05-30T12:38:16.915Z,21.70
2019-05-30T12:40:43.347Z,22.00
2019-05-30T12:43:09.593Z,21.30
2019-05-30T12:45:36.627Z,21.10
2019-05-30T12:48:04.290Z,21.20
2019-05-30T12:50:59.345Z,21.70
2019-05-30T12:52:57.637Z,22.40
2019-05-30T12:55:26.323Z,22.70
2019-05-30T12:57:51.930Z,22.80
2019-05-30T13:00:30.586Z,22.40
2019-05-30T13:02:49.547Z,22.50
2019-05-30T13:05:14.665Z,22.50
2019-05-30T13:08:21.891Z,22.50
2019-05-30T13:10:19.168Z,22.70
2019-05-30T13:12:43.177Z,22.70
2019-05-30T13:15:19.992Z,22.70
2019-05-30T13:17:45.373Z,22.90
2019-05-30T13:20:11.370Z,22.50
2019-05-30T13:22:59.087Z,22.60
2019-05-30T13:25:25.371Z,22.80
2019-05-30T13:27:53.386Z,22.60
2019-05-30T13:30:46.876Z,22.40
2019-05-30T13:32:46.096Z,22.30
2019-05-30T13:35:13.298Z,21.90
2019-05-30T13:38:07.283Z,21.80
2019-05-30T13:40:24.295Z,21.80
2019-05-30T13:42:42.888Z,22.10
2019-05-30T13:45:10.799Z,22.40
2019-05-30T13:47:34.834Z,22.60
2019-05-30T13:50:44.441Z,22.60
2019-05-30T13:52:50.874Z,22.40
2019-05-30T13:56:42.534Z,22.30
2019-05-30T13:58:17.560Z,21.90
2019-05-30T14:00:26.029Z,21.90
2019-05-30T14:05:14.511Z,21.90
2019-05-30T14:08:41.604Z,21.10
2019-05-30T14:10:31.975Z,20.30
2019-05-30T14:13:07.242Z,20.00
2019-05-30T14:15:35.048Z,20.10
2019-05-30T14:18:40.717Z,20.30
2019-05-30T14:20:42.442Z,20.90
2019-05-30T14:23:32.808Z,21.00
2019-05-30T14:28:04.177Z,21.30
2019-05-30T14:31:24.411Z,21.80
2019-05-30T14:33:36.489Z,21.90
2019-05-30T14:36:55.383Z,21.50
2019-05-30T14:38:59.175Z,21.70
2019-05-30T14:40:58.999Z,21.70
2019-05-30T14:44:25.974Z,21.70
2019-05-30T14:47:06.390Z,22.00
2019-05-30T14:48:38.793Z,22.50
2019-05-30T14:51:43.956Z,22.20
2019-05-30T14:54:42.125Z,21.90
2019-05-30T14:57:12.979Z,21.80
2019-05-30T14:58:43.852Z,21.90
2019-05-30T15:01:09.393Z,21.50
2019-05-30T15:04:42.190Z,20.60
2019-05-30T15:06:24.825Z,20.50
2019-05-30T15:08:50.147Z,21.00
2019-05-30T15:11:17.161Z,21.50
2019-05-30T15:13:43.894Z,21.60
2019-05-30T15:16:09.557Z,22.00
2019-05-30T15:18:46.134Z,22.40
2019-05-30T15:21:22.575Z,23.40
2019-05-30T15:23:48.346Z,24.60
2019-05-30T15:26:25.394Z,25.40
2019-05-30T15:29:01.786Z,25.20
2019-05-30T15:31:27.805Z,25.00
2019-05-30T15:33:57.885Z,24.00
2019-05-30T15:36:19.986Z,23.70
2019-05-30T15:38:46.267Z,22.90
2019-05-30T15:41:41.379Z,22.50
2019-05-30T15:43:41.691Z,22.60
2019-05-30T15:46:07.858Z,22.80
2019-05-30T15:48:36.162Z,23.00
2019-05-30T15:51:01.665Z,23.20
2019-05-30T15:54:01.040Z,24.30
2019-05-30T15:55:59.894Z,25.00
2019-05-30T15:58:58.229Z,24.90
2019-05-30T16:00:53.370Z,24.20
2019-05-30T16:03:49.858Z,23.50
2019-05-30T16:06:01.366Z,23.70
2019-05-30T16:08:23.143Z,24.40
2019-05-30T16:11:01.881Z,25.30
2019-05-30T16:13:32.265Z,25.40
2019-05-30T16:15:58.453Z,25.50
2019-05-30T16:18:26.049Z,25.30
2019-05-30T16:20:53.268Z,25.10
2019-05-30T16:23:49.705Z,25.40
2019-05-30T16:26:01.269Z,25.60
2019-05-30T16:28:28.991Z,25.50
2019-05-30T16:31:22.295Z,25.30
2019-05-30T16:33:20.038Z,25.50
2019-05-30T16:36:28.222Z,25.80
2019-05-30T16:38:30.708Z,25.90
2019-05-30T16:41:22.623Z,26.40
2019-05-30T16:44:07.000Z,26.80
2019-05-30T16:45:52.110Z,25.90
2019-05-30T16:48:18.293Z,25.30
2019-05-30T16:51:44.692Z,24.90
2019-05-30T16:53:25.985Z,24.80
2019-05-30T16:55:53.810Z,24.20
2019-05-30T16:58:20.337Z,24.70
2019-05-30T17:01:15.750Z,25.00
2019-05-30T17:04:12.243Z,24.70
2019-05-30T17:06:13.084Z,24.30
2019-05-30T17:08:24.304Z,23.60
2019-05-30T17:10:47.900Z,22.90
2019-05-30T17:13:15.682Z,22.30
2019-05-30T17:15:45.867Z,21.80
2019-05-30T17:18:12.129Z,21.10
2019-05-30T17:20:38.149Z,20.90
2019-05-30T17:23:05.528Z,20.60
2019-05-30T17:25:40.915Z,20.50
2019-05-30T17:28:09.378Z,20.20
2019-05-30T17:30:36.425Z,20.00
2019-05-30T17:33:10.525Z,20.00
2019-05-30T17:35:37.057Z,20.00
2019-05-30T17:38:04.614Z,20.00
2019-05-30T17:40:44.989Z,20.00
2019-05-30T17:43:07.873Z,20.00
2019-05-30T17:46:00.058Z,20.00
2019-05-30T17:48:23.863Z,20.20
2019-05-30T17:50:51.132Z,20.20
2019-05-30T17:53:19.737Z,20.20
2019-05-30T17:56:18.308Z,20.20
2019-05-30T17:58:13.618Z,20.30
2019-05-30T18:01:08.055Z,20.20
2019-05-30T18:03:40.886Z,20.20
2019-05-30T18:05:41.211Z,20.00
2019-05-30T18:08:08.705Z,19.90
2019-05-30T18:10:35.597Z,19.80
2019-05-30T18:14:17.315Z,19.80
2019-05-30T18:16:07.897Z,19.60
2019-05-30T18:18:31.770Z,19.50
2019-05-30T18:20:48.316Z,19.40
2019-05-30T18:23:37.451Z,19.30
2019-05-30T18:26:18.459Z,19.20
2019-05-30T18:28:28.103Z,19.10
2019-05-30T18:31:21.903Z,19.00
2019-05-30T18:33:19.975Z,18.90
2019-05-30T18:35:46.149Z,18.70
2019-05-30T18:38:11.661Z,18.60
2019-05-30T18:42:25.433Z,18.50
2019-05-30T18:44:22.742Z,18.50
2019-05-30T18:47:16.679Z,18.30
2019-05-30T18:49:44.417Z,18.30
2019-05-30T18:51:43.738Z,18.30
2019-05-30T18:54:42.910Z,18.30
2019-05-30T18:56:42.357Z,18.20
2019-05-30T18:59:09.477Z,18.10
2019-05-30T19:01:37.936Z,18.00
2019-05-30T19:04:06.160Z,18.00
2019-05-30T19:08:00.250Z,18.00
2019-05-30T19:09:37.454Z,17.90
2019-05-30T19:11:35.334Z,17.90
2019-05-30T19:14:07.719Z,17.90
2019-05-30T19:16:36.690Z,17.80
2019-05-30T19:19:05.809Z,17.70
2019-05-30T19:21:59.502Z,17.70
2019-05-30T19:23:57.776Z,17.60
2019-05-30T19:26:24.458Z,17.60
2019-05-30T19:28:49.289Z,17.50
2019-05-30T19:31:15.834Z,17.50
2019-05-30T19:34:10.909Z,17.40
2019-05-30T19:36:10.177Z,17.40
2019-05-30T19:39:14.793Z,17.30
2019-05-30T19:41:23.742Z,17.30
2019-05-30T19:43:49.370Z,17.20
2019-05-30T19:46:15.349Z,17.30
2019-05-30T19:49:47.828Z,17.20
2019-05-30T19:51:21.833Z,17.20
2019-05-30T19:53:48.513Z,17.20
2019-05-30T19:56:33.350Z,17.10
2019-05-30T20:01:13.837Z,17.20
2019-05-30T20:03:46.637Z,17.10
2019-05-30T20:06:36.674Z,17.00
2019-05-30T20:08:53.462Z,16.90
2019-05-30T20:11:37.190Z,16.90
2019-05-30T20:16:57.228Z,16.80
2019-05-30T20:17:54.206Z,16.80
2019-05-30T20:19:58.763Z,16.70
2019-05-30T20:22:54.165Z,16.70
2019-05-30T20:24:53.631Z,16.70
2019-05-30T20:27:20.929Z,16.70
2019-05-30T20:30:14.489Z,16.70
2019-05-30T20:32:51.286Z,16.70
2019-05-30T20:35:27.693Z,16.70
2019-05-30T20:37:54.016Z,16.60
2019-05-30T20:40:22.713Z,16.60
2019-05-30T20:42:45.826Z,16.60
2019-05-30T20:45:12.477Z,16.60
2019-05-30T20:47:40.237Z,16.50
2019-05-30T20:50:09.908Z,16.50
2019-05-30T20:52:38.269Z,16.50
2019-05-30T20:55:01.500Z,16.50
2019-05-30T20:57:28.606Z,16.50
2019-05-30T20:59:55.635Z,16.50
2019-05-30T21:02:39.066Z,16.40
2019-05-30T21:04:50.934Z,16.50
2019-05-30T21:07:57.040Z,16.50
2019-05-30T21:09:54.898Z,16.50
2019-05-30T21:12:37.685Z,16.40
2019-05-30T21:17:46.775Z,16.50
2019-05-30T21:18:39.706Z,16.40
2019-05-30T21:21:10.195Z,16.40
2019-05-30T21:23:09.354Z,16.50
2019-05-30T21:26:03.245Z,16.40
2019-05-30T21:28:13.907Z,16.40
2019-05-30T21:31:12.518Z,16.40
2019-05-30T21:33:09.580Z,16.40
2019-05-30T21:35:35.074Z,16.50
2019-05-30T21:38:00.964Z,16.50
2019-05-30T21:40:28.673Z,16.50
2019-05-30T21:43:09.915Z,16.40
2019-05-30T21:45:51.050Z,16.40
2019-05-30T21:47:50.518Z,16.40
2019-05-30T21:53:10.512Z,16.30
2019-05-30T21:54:03.589Z,16.30
2019-05-30T21:56:01.983Z,16.20
2019-05-30T21:58:27.085Z,16.20
2019-05-30T22:01:18.800Z,16.20
2019-05-30T22:03:31.254Z,16.20
2019-05-30T22:06:26.004Z,16.10
2019-05-30T22:08:27.702Z,16.10
2019-05-30T22:10:53.881Z,16.00
2019-05-30T22:13:19.924Z,16.00
2019-05-30T22:17:12.099Z,15.90
2019-05-30T22:18:18.298Z,15.90
2019-05-30T22:20:43.805Z,15.90
2019-05-30T22:23:35.225Z,15.90
2019-05-30T22:26:01.113Z,15.90
2019-05-30T22:28:25.344Z,15.80
2019-05-30T22:31:20.047Z,15.80
2019-05-30T22:33:48.750Z,15.80
2019-05-30T22:35:47.207Z,15.80
2019-05-30T22:38:12.911Z,15.80
2019-05-30T22:40:39.845Z,15.70
2019-05-30T22:43:07.894Z,15.70
2019-05-30T22:46:02.689Z,15.70
2019-05-30T22:48:03.793Z,15.70
2019-05-30T22:50:28.399Z,15.70
2019-05-30T22:52:54.306Z,15.60
2019-05-30T22:55:54.318Z,15.60
2019-05-30T22:57:52.600Z,15.50
2019-05-30T23:00:19.187Z,15.50
2019-05-30T23:03:03.127Z,15.50
2019-05-30T23:05:28.666Z,15.40
2019-05-30T23:07:55.565Z,15.40
2019-05-30T23:10:22.273Z,15.40
2019-05-30T23:12:48.124Z,15.40
2019-05-30T23:15:14.157Z,15.40
2019-05-30T23:17:40.523Z,15.40
2019-05-30T23:20:38.882Z,15.30
2019-05-30T23:22:41.385Z,15.40
2019-05-30T23:25:39.914Z,15.30
2019-05-30T23:27:36.594Z,15.30
2019-05-30T23:30:03.623Z,15.30
2019-05-30T23:32:28.172Z,15.30
2019-05-30T23:34:58.618Z,15.30
2019-05-30T23:37:52.967Z,15.30
2019-05-30T23:39:55.366Z,15.30
2019-05-30T23:42:48.951Z,15.30
2019-05-30T23:44:57.920Z,15.40
2019-05-30T23:47:51.631Z,15.40
2019-05-30T23:49:51.734Z,15.40
2019-05-30T23:52:26.044Z,15.40
2019-05-30T23:55:48.513Z,15.40
2019-05-30T23:57:50.329Z,15.40
2019-05-30T23:59:50.534Z,15.40
